Time;durP1;ratioP1;P1;durP2;ratioP2;P2;SDS_P1;SDS_P2;PMS_P1;PMS_P2;Temp;Humidity;BMP_temperature;BMP_pressure;BME280_temperature;BME280_humidity;BME280_pressure;Samples;Min_cycle;Max_cycle;Signal;HPM_P1;HPM_P2
2023/09/04 00:00:07;;;;;;;14.10;12.63;;;16.70;99.90;;;;;;5093186;28;20168;-83
2023/09/04 00:02:32;;;;;;;13.43;12.23;;;16.60;99.90;;;;;;5093153;28;20620;-83
2023/09/04 00:04:58;;;;;;;13.43;11.90;;;16.60;99.90;;;;;;5092867;28;20198;-82
2023/09/04 00:07:23;;;;;;;13.03;11.83;;;16.50;99.90;;;;;;5093048;28;20217;-82
2023/09/04 00:09:50;;;;;;;12.20;11.10;;;16.50;99.90;;;;;;5093169;28;20170;-82
2023/09/04 00:12:15;;;;;;;13.20;11.80;;;16.50;99.90;;;;;;5095578;28;20182;-82
2023/09/04 00:14:41;;;;;;;13.87;11.97;;;16.40;99.90;;;;;;5097156;28;20255;-82
2023/09/04 00:17:07;;;;;;;13.83;12.53;;;16.40;99.90;;;;;;5096719;28;20176;-82
2023/09/04 00:19:34;;;;;;;14.47;12.70;;;16.40;99.90;;;;;;5096196;28;20212;-82
2023/09/04 00:21:59;;;;;;;13.50;11.93;;;16.40;99.90;;;;;;5096605;28;20201;-82
2023/09/04 00:24:26;;;;;;;14.93;12.23;;;16.30;99.90;;;;;;5096643;28;20247;-80
2023/09/04 00:26:51;;;;;;;13.60;12.23;;;16.30;99.90;;;;;;5097069;28;20178;-80
2023/09/04 00:29:17;;;;;;;13.77;12.57;;;16.20;99.90;;;;;;5096706;28;20176;-81
2023/09/04 00:31:42;;;;;;;14.90;13.50;;;16.20;99.90;;;;;;5096543;28;20623;-82
2023/09/04 00:34:08;;;;;;;13.97;12.63;;;16.20;99.90;;;;;;5096142;28;20264;-81
2023/09/04 00:36:34;;;;;;;15.10;13.70;;;16.10;99.90;;;;;;5096631;28;20182;-81
2023/09/04 00:38:59;;;;;;;14.83;13.40;;;16.10;99.90;;;;;;5096446;28;20206;-82
2023/09/04 00:41:25;;;;;;;15.90;14.10;;;16.10;99.90;;;;;;5096245;28;20213;-81
2023/09/04 00:43:50;;;;;;;14.67;13.27;;;16.10;99.90;;;;;;5096725;28;20708;-82
2023/09/04 00:46:16;;;;;;;14.83;13.43;;;16.00;99.90;;;;;;5095143;28;20700;-82
2023/09/04 00:48:43;;;;;;;14.87;13.07;;;16.00;99.90;;;;;;5096089;28;20243;-81
2023/09/04 00:51:09;;;;;;;15.83;13.60;;;16.00;99.90;;;;;;5094791;28;20194;-81
2023/09/04 00:53:37;;;;;;;16.13;14.53;;;15.90;99.90;;;;;;5094882;28;20631;-81
2023/09/04 00:56:05;;;;;;;14.17;12.83;;;15.90;99.90;;;;;;5095949;28;20199;-83
2023/09/04 00:58:30;;;;;;;15.43;13.83;;;15.90;99.90;;;;;;5096018;28;20222;-81
2023/09/04 01:00:56;;;;;;;14.80;13.43;;;15.90;99.90;;;;;;5095952;28;20172;-82
2023/09/04 01:03:23;;;;;;;15.40;13.80;;;15.90;99.90;;;;;;5095683;28;20538;-82
2023/09/04 01:05:48;;;;;;;16.00;14.30;;;15.90;99.90;;;;;;5096011;28;20164;-82
2023/09/04 01:08:14;;;;;;;18.93;17.13;;;15.90;99.90;;;;;;5096031;28;20183;-80
2023/09/04 01:11:02;;;;;;;17.00;14.97;;;15.90;99.90;;;;;;5095957;28;20164;-82
2023/09/04 01:13:40;;;;;;;16.00;14.40;;;15.90;99.90;;;;;;5095947;28;20168;-82
2023/09/04 01:16:06;;;;;;;16.10;13.50;;;15.90;99.90;;;;;;5095817;28;20198;-81
2023/09/04 01:18:34;;;;;;;16.10;14.40;;;15.90;99.90;;;;;;5095437;28;20238;-80
2023/09/04 01:21:04;;;;;;;15.10;13.70;;;15.90;99.90;;;;;;5095125;28;20725;-82
2023/09/04 01:23:30;;;;;;;17.30;15.13;;;15.80;99.90;;;;;;5095648;28;20194;-82
2023/09/04 01:26:08;;;;;;;17.13;15.43;;;15.80;99.90;;;;;;5095670;28;20191;-82
2023/09/04 01:29:09;;;;;;;16.97;15.17;;;15.70;99.90;;;;;;5095613;28;20246;-81
2023/09/04 01:31:54;;;;;;;16.93;15.13;;;15.70;99.90;;;;;;5095371;28;20164;-82
2023/09/04 01:34:34;;;;;;;18.17;15.67;;;15.60;99.90;;;;;;5095317;28;20589;-82
2023/09/04 01:37:01;;;;;;;16.77;15.00;;;15.60;99.90;;;;;;5095250;28;20164;-80
2023/09/04 01:39:26;;;;;;;17.47;15.67;;;15.60;99.90;;;;;;5095383;28;20262;-80
2023/09/04 01:41:52;;;;;;;18.80;15.90;;;15.60;99.90;;;;;;5095134;28;20164;-80
2023/09/04 01:44:18;;;;;;;18.90;16.37;;;15.60;99.90;;;;;;5095331;28;20172;-81
2023/09/04 01:46:44;;;;;;;17.50;15.63;;;15.60;99.90;;;;;;5095156;28;20172;-80
2023/09/04 01:49:09;;;;;;;18.30;16.43;;;15.50;99.90;;;;;;5095522;28;20167;-80
2023/09/04 01:51:35;;;;;;;18.10;16.20;;;15.50;99.90;;;;;;5095366;28;20578;-80
2023/09/04 01:54:01;;;;;;;19.47;17.20;;;15.60;99.90;;;;;;5095749;28;20164;-81
2023/09/04 01:56:27;;;;;;;18.77;16.77;;;15.50;99.90;;;;;;5095754;28;20691;-81
2023/09/04 01:58:52;;;;;;;19.30;17.40;;;15.50;99.90;;;;;;5095687;28;20724;-80
2023/09/04 02:01:18;;;;;;;19.73;17.50;;;15.50;99.90;;;;;;5095724;28;20168;-80
2023/09/04 02:03:44;;;;;;;20.07;17.97;;;15.50;99.90;;;;;;5095982;28;20175;-80
2023/09/04 02:06:10;;;;;;;23.87;20.27;;;15.50;99.90;;;;;;5095121;28;20182;-82
2023/09/04 02:08:36;;;;;;;21.90;19.53;;;15.50;99.90;;;;;;5095108;28;20176;-80
2023/09/04 02:11:01;;;;;;;21.70;19.37;;;15.50;99.90;;;;;;5093642;28;20179;-80
2023/09/04 02:13:27;;;;;;;22.87;18.53;;;15.50;99.90;;;;;;5094939;28;20213;-80
2023/09/04 02:15:53;;;;;;;21.77;19.00;;;15.50;99.90;;;;;;5094505;28;20163;-80
2023/09/04 02:18:18;;;;;;;19.83;17.77;;;15.50;99.90;;;;;;5094666;28;20226;-81
2023/09/04 02:20:46;;;;;;;20.40;18.40;;;15.50;99.90;;;;;;5094236;28;20230;-80
2023/09/04 02:23:12;;;;;;;21.73;19.53;;;15.50;99.90;;;;;;5094916;28;20168;-81
2023/09/04 02:25:38;;;;;;;19.80;17.90;;;15.50;99.90;;;;;;5094422;28;20293;-81
2023/09/04 02:28:04;;;;;;;21.27;18.97;;;15.50;99.90;;;;;;5094363;28;20537;-80
2023/09/04 02:30:29;;;;;;;22.93;18.57;;;15.40;99.90;;;;;;5094436;28;20175;-81
2023/09/04 02:32:59;;;;;;;21.17;18.97;;;15.40;99.90;;;;;;5093797;28;20168;-81
2023/09/04 02:35:25;;;;;;;23.03;18.80;;;15.30;99.90;;;;;;5094610;28;20184;-81
2023/09/04 02:37:51;;;;;;;21.97;18.63;;;15.40;99.90;;;;;;5094388;28;20563;-81
2023/09/04 02:40:17;;;;;;;21.53;19.07;;;15.40;99.90;;;;;;5093796;28;20639;-81
2023/09/04 02:42:42;;;;;;;22.07;19.57;;;15.50;99.90;;;;;;5094324;28;20213;-81
2023/09/04 02:45:09;;;;;;;22.73;20.33;;;15.40;99.90;;;;;;5093783;28;20197;-81
2023/09/04 02:47:37;;;;;;;22.03;19.57;;;15.40;99.90;;;;;;5094226;28;20231;-81
2023/09/04 02:50:04;;;;;;;21.27;18.83;;;15.30;99.90;;;;;;5094289;28;20647;-81
2023/09/04 02:52:30;;;;;;;22.90;20.50;;;15.40;99.90;;;;;;5094108;28;20259;-81
2023/09/04 02:54:56;;;;;;;22.53;20.23;;;15.30;99.90;;;;;;5092351;28;20197;-80
2023/09/04 02:57:22;;;;;;;22.67;19.47;;;15.20;99.90;;;;;;5093918;28;20160;-81
2023/09/04 02:59:48;;;;;;;24.20;20.07;;;15.10;99.90;;;;;;5093627;28;20578;-81
2023/09/04 03:02:14;;;;;;;21.90;19.60;;;15.10;99.90;;;;;;5094093;28;20168;-80
2023/09/04 03:04:40;;;;;;;22.67;20.00;;;15.10;99.90;;;;;;5093688;28;20168;-80
2023/09/04 03:07:06;;;;;;;23.30;20.27;;;15.10;99.90;;;;;;5092407;28;20309;-81
2023/09/04 03:09:32;;;;;;;23.57;20.20;;;15.00;99.90;;;;;;5093587;28;20259;-81
2023/09/04 03:11:58;;;;;;;21.87;19.60;;;15.00;99.90;;;;;;5092513;28;20238;-80
2023/09/04 03:14:24;;;;;;;24.13;20.23;;;14.90;99.90;;;;;;5093374;28;20527;-81
2023/09/04 03:16:50;;;;;;;24.67;20.87;;;14.90;99.90;;;;;;5093588;28;20170;-80
2023/09/04 03:19:16;;;;;;;25.00;21.03;;;14.90;99.90;;;;;;5092957;28;20681;-81
2023/09/04 03:21:42;;;;;;;24.70;22.10;;;14.90;99.90;;;;;;5093243;28;20639;-81
2023/09/04 03:24:08;;;;;;;26.37;21.70;;;14.90;99.90;;;;;;5093328;28;20206;-81
2023/09/04 03:26:33;;;;;;;26.57;21.93;;;14.90;99.90;;;;;;5093785;28;20547;-80
2023/09/04 03:28:59;;;;;;;28.83;22.30;;;14.90;99.90;;;;;;5093379;28;20172;-80
2023/09/04 03:31:25;;;;;;;26.23;21.90;;;14.80;99.90;;;;;;5093391;28;20229;-81
2023/09/04 03:33:51;;;;;;;29.93;22.40;;;14.90;99.90;;;;;;5093107;28;20639;-79
2023/09/04 03:36:16;;;;;;;25.90;22.90;;;14.90;99.90;;;;;;5093360;28;20595;-80
2023/09/04 03:38:42;;;;;;;25.47;21.93;;;14.90;99.90;;;;;;5093097;28;20671;-80
2023/09/04 03:41:07;;;;;;;27.23;22.80;;;14.90;99.90;;;;;;5093277;28;20217;-80
2023/09/04 03:43:36;;;;;;;27.23;22.17;;;14.80;99.90;;;;;;5093013;28;20274;-79
2023/09/04 03:46:01;;;;;;;26.63;23.57;;;14.90;99.90;;;;;;5096612;28;20245;-81
2023/09/04 03:48:27;;;;;;;33.37;25.27;;;14.90;99.90;;;;;;5096154;28;20184;-82
2023/09/04 03:50:53;;;;;;;30.37;24.53;;;14.90;99.90;;;;;;5097219;28;20164;-80
2023/09/04 03:53:18;;;;;;;29.83;24.53;;;14.90;99.90;;;;;;5096792;28;20180;-81
2023/09/04 03:55:44;;;;;;;28.50;23.67;;;14.80;99.90;;;;;;5097432;28;20616;-80
2023/09/04 03:58:09;;;;;;;28.20;23.67;;;14.80;99.90;;;;;;5095296;28;20207;-80
2023/09/04 04:00:35;;;;;;;29.70;23.37;;;14.80;99.90;;;;;;5097030;28;20692;-81
2023/09/04 04:03:01;;;;;;;29.50;23.13;;;14.80;99.90;;;;;;5095565;28;20179;-81
2023/09/04 04:05:27;;;;;;;29.50;22.83;;;14.80;99.90;;;;;;5096507;28;20168;-81
2023/09/04 04:07:55;;;;;;;31.13;24.63;;;14.80;99.90;;;;;;5096704;28;20233;-80
2023/09/04 04:10:21;;;;;;;31.40;24.47;;;14.70;99.90;;;;;;5096861;28;20214;-80
2023/09/04 04:12:50;;;;;;;28.70;24.97;;;14.70;99.90;;;;;;5095828;28;20191;-80
2023/09/04 04:15:17;;;;;;;30.53;24.80;;;14.70;99.90;;;;;;5096789;28;20214;-80
2023/09/04 04:17:43;;;;;;;32.07;23.70;;;14.70;99.90;;;;;;5096531;28;20683;-80
2023/09/04 04:20:12;;;;;;;33.33;23.33;;;14.60;99.90;;;;;;5095320;28;20220;-80
2023/09/04 04:22:39;;;;;;;30.90;23.93;;;14.60;99.90;;;;;;5095071;28;20203;-81
2023/09/04 04:25:05;;;;;;;27.83;24.23;;;14.60;99.90;;;;;;5096709;28;20172;-81
2023/09/04 04:27:31;;;;;;;28.47;23.07;;;14.60;99.90;;;;;;5095840;28;20217;-81
2023/09/04 04:29:57;;;;;;;27.97;23.33;;;14.60;99.90;;;;;;5096276;28;20239;-81
2023/09/04 04:32:23;;;;;;;31.83;25.50;;;14.60;99.90;;;;;;5094538;28;20176;-81
2023/09/04 04:34:48;;;;;;;28.87;23.57;;;14.60;99.90;;;;;;5095675;28;20175;-81
2023/09/04 04:37:14;;;;;;;28.67;23.60;;;14.60;99.90;;;;;;5096223;28;20650;-81
2023/09/04 04:39:40;;;;;;;28.10;23.97;;;14.50;99.90;;;;;;5096136;28;20172;-80
2023/09/04 04:42:05;;;;;;;26.77;22.83;;;14.50;99.90;;;;;;5095814;28;20187;-80
2023/09/04 04:44:31;;;;;;;29.60;23.40;;;14.50;99.90;;;;;;5095851;28;20643;-80
2023/09/04 04:46:57;;;;;;;30.23;22.97;;;14.50;99.90;;;;;;5094429;28;20176;-80
2023/09/04 04:49:23;;;;;;;28.73;23.27;;;14.50;99.90;;;;;;5095619;28;20288;-80
2023/09/04 04:51:51;;;;;;;32.63;23.97;;;14.50;99.90;;;;;;5095256;28;20258;-81
2023/09/04 04:54:19;;;;;;;32.90;23.67;;;14.50;99.90;;;;;;5094451;28;20207;-81
2023/09/04 04:56:48;;;;;;;27.97;23.43;;;14.50;99.90;;;;;;5094430;28;20168;-80
2023/09/04 04:59:15;;;;;;;28.80;24.43;;;14.50;99.90;;;;;;5095517;28;20265;-81
2023/09/04 05:01:41;;;;;;;25.57;22.87;;;14.50;99.90;;;;;;5095538;28;20237;-79
2023/09/04 05:04:06;;;;;;;28.50;23.13;;;14.50;99.90;;;;;;5093839;28;20599;-79
2023/09/04 05:06:32;;;;;;;33.27;23.73;;;14.40;99.90;;;;;;5095506;28;20168;-80
2023/09/04 05:08:58;;;;;;;29.70;23.00;;;14.50;99.90;;;;;;5094636;28;20175;-80
2023/09/04 05:11:23;;;;;;;29.50;23.60;;;14.40;99.90;;;;;;5094707;28;20207;-81
2023/09/04 05:13:49;;;;;;;27.30;23.90;;;14.50;99.90;;;;;;5093614;28;20183;-81
2023/09/04 05:16:14;;;;;;;27.07;22.90;;;14.50;99.90;;;;;;5095254;28;20176;-81
2023/09/04 05:18:40;;;;;;;30.83;24.23;;;14.50;99.90;;;;;;5095016;28;20191;-81
2023/09/04 05:21:06;;;;;;;26.93;22.70;;;14.50;99.90;;;;;;5093078;28;20219;-80
2023/09/04 05:23:33;;;;;;;28.13;23.10;;;14.60;99.90;;;;;;5094783;28;20262;-80
2023/09/04 05:25:58;;;;;;;28.57;22.93;;;14.80;99.90;;;;;;5094852;28;20258;-80
2023/09/04 05:28:24;;;;;;;29.87;22.13;;;15.00;99.90;;;;;;5093414;28;20702;-81
2023/09/04 05:30:50;;;;;;;27.40;21.67;;;15.30;99.90;;;;;;5094632;28;20170;-81
2023/09/04 05:33:16;;;;;;;27.83;20.27;;;15.50;99.90;;;;;;5093276;28;20184;-81
2023/09/04 05:35:42;;;;;;;27.47;20.50;;;15.80;99.90;;;;;;5094379;28;20243;-81
2023/09/04 05:38:07;;;;;;;30.27;20.60;;;16.00;99.90;;;;;;5094787;28;20204;-80
2023/09/04 05:40:33;;;;;;;30.27;20.23;;;16.00;99.90;;;;;;5093353;28;20225;-81
2023/09/04 05:42:59;;;;;;;26.57;20.40;;;16.10;99.90;;;;;;5094509;28;20168;-82
2023/09/04 05:45:25;;;;;;;24.27;19.20;;;16.00;99.90;;;;;;5094221;28;20172;-81
2023/09/04 05:47:51;;;;;;;24.67;19.30;;;15.90;99.90;;;;;;5094319;28;20687;-81
2023/09/04 05:50:16;;;;;;;25.37;19.93;;;16.00;99.90;;;;;;5093315;28;20243;-80
2023/09/04 05:52:42;;;;;;;24.30;18.60;;;16.40;99.90;;;;;;5093596;28;20210;-80
2023/09/04 05:55:08;;;;;;;21.07;18.80;;;16.70;99.90;;;;;;5093356;28;20160;-80
2023/09/04 05:57:35;;;;;;;23.30;18.03;;;17.50;99.90;;;;;;5094054;28;20639;-82
2023/09/04 06:00:01;;;;;;;20.47;17.17;;;18.50;99.90;;;;;;5093605;28;20168;-82
2023/09/04 06:02:27;;;;;;;20.83;18.00;;;19.50;99.90;;;;;;5094249;28;20254;-82
2023/09/04 06:04:53;;;;;;;18.33;16.42;;;20.40;99.90;;;;;;5093908;28;20600;-82
2023/09/04 06:07:18;;;;;;;20.45;17.05;;;21.10;99.90;;;;;;5092624;28;20182;-81
2023/09/04 06:09:44;;;;;;;19.92;14.90;;;21.90;99.90;;;;;;5093149;28;20176;-81
2023/09/04 06:12:11;;;;;;;19.27;15.48;;;22.20;99.90;;;;;;5093934;28;20649;-81
2023/09/04 06:14:37;;;;;;;18.52;16.67;;;22.80;99.90;;;;;;5093547;28;20226;-81
2023/09/04 06:17:03;;;;;;;20.83;16.60;;;22.90;99.90;;;;;;5092582;28;20191;-81
2023/09/04 06:19:29;;;;;;;21.48;16.55;;;23.00;99.90;;;;;;5093303;28;20215;-80
2023/09/04 06:21:55;;;;;;;20.23;15.90;;;23.10;99.90;;;;;;5091764;28;20273;-80
2023/09/04 06:24:21;;;;;;;20.45;16.13;;;23.50;99.90;;;;;;5093187;28;20658;-82
2023/09/04 06:26:46;;;;;;;20.35;16.45;;;23.80;99.90;;;;;;5093642;28;20206;-82
2023/09/04 06:29:13;;;;;;;20.20;15.93;;;24.20;99.90;;;;;;5093733;28;20241;-83
2023/09/04 06:31:38;;;;;;;18.67;15.52;;;24.90;99.90;;;;;;5093211;28;20172;-82
2023/09/04 06:34:04;;;;;;;24.88;16.63;;;25.20;99.90;;;;;;5092136;28;20198;-81
2023/09/04 06:36:30;;;;;;;18.45;16.42;;;25.10;99.90;;;;;;5092593;28;20198;-82
2023/09/04 06:38:55;;;;;;;19.13;16.90;;;24.20;99.90;;;;;;5091323;28;20233;-82
2023/09/04 06:41:21;;;;;;;19.83;16.02;;;23.40;99.90;;;;;;5092817;28;20188;-81
2023/09/04 06:43:47;;;;;;;18.08;16.08;;;22.90;99.90;;;;;;5093105;28;20175;-81
2023/09/04 06:46:13;;;;;;;20.52;16.10;;;22.50;99.90;;;;;;5093170;28;20168;-82
2023/09/04 06:48:39;;;;;;;17.75;15.88;;;22.10;99.90;;;;;;5092208;28;20206;-81
2023/09/04 06:51:05;;;;;;;17.33;15.52;;;22.00;99.90;;;;;;5091960;28;20203;-84
2023/09/04 06:53:31;;;;;;;18.73;15.88;;;22.30;99.90;;;;;;5093166;28;20198;-82
2023/09/04 06:55:57;;;;;;;20.08;15.57;;;22.70;99.90;;;;;;5092591;28;20160;-81
2023/09/04 06:58:24;;;;;;;17.60;15.43;;;23.30;99.90;;;;;;5091386;28;20221;-82
2023/09/04 07:00:51;;;;;;;23.42;15.68;;;23.70;99.90;;;;;;5092387;28;20182;-82
2023/09/04 07:03:17;;;;;;;17.02;15.00;;;24.40;99.90;;;;;;5092979;28;20175;-81
2023/09/04 07:05:42;;;;;;;15.73;14.05;;;24.90;99.90;;;;;;5092426;28;20600;-81
2023/09/04 07:08:08;;;;;;;18.33;14.25;;;26.10;98.60;;;;;;5093894;28;20168;-80
2023/09/04 07:10:34;;;;;;;15.77;14.10;;;27.40;96.70;;;;;;5091843;28;20180;-81
2023/09/04 07:13:00;;;;;;;14.93;13.38;;;27.90;93.40;;;;;;5092343;28;20172;-80
2023/09/04 07:15:26;;;;;;;15.23;13.60;;;27.90;99.90;;;;;;5092598;28;20183;-80
2023/09/04 07:17:52;;;;;;;14.35;12.60;;;27.50;1.00;;;;;;5092853;28;20203;-81
2023/09/04 07:20:18;;;;;;;18.23;12.82;;;27.70;1.00;;;;;;5091339;28;20250;-79
2023/09/04 07:22:43;;;;;;;13.65;12.35;;;27.80;99.90;;;;;;5092458;28;20168;-79
2023/09/04 07:25:10;;;;;;;14.48;12.98;;;27.10;99.90;;;;;;5092538;28;20164;-80
2023/09/04 07:27:36;;;;;;;16.67;12.05;;;26.70;1.00;;;;;;5092462;28;20176;-80
2023/09/04 07:30:03;;;;;;;13.75;12.32;;;26.60;1.00;;;;;;5092197;28;20606;-81
2023/09/04 07:32:28;;;;;;;14.23;11.43;;;26.30;1.00;;;;;;5092645;28;20635;-80
2023/09/04 07:34:55;;;;;;;13.88;11.27;;;26.60;1.00;;;;;;5090871;28;20194;-79
2023/09/04 07:37:26;;;;;;;11.57;10.20;;;26.50;1.00;;;;;;5090794;28;20168;-80
2023/09/04 07:39:52;;;;;;;9.40;8.50;;;26.20;1.00;;;;;;5092778;28;20211;-79
2023/09/04 07:42:18;;;;;;;10.15;9.15;;;26.30;99.90;;;;;;5092011;28;20529;-79
2023/09/04 07:44:44;;;;;;;9.27;8.38;;;25.60;1.00;;;;;;5092886;28;20172;-78
2023/09/04 07:47:10;;;;;;;10.88;8.85;;;25.50;1.00;;;;;;5090805;28;20180;-79
2023/09/04 07:49:35;;;;;;;9.98;8.32;;;24.70;1.00;;;;;;5092440;28;20275;-79
2023/09/04 07:52:01;;;;;;;8.93;8.02;;;25.10;1.00;;;;;;5092677;28;20171;-78
2023/09/04 07:54:27;;;;;;;8.00;7.25;;;25.90;1.00;;;;;;5091010;28;20206;-77
2023/09/04 07:56:52;;;;;;;8.65;7.63;;;26.10;1.00;;;;;;5091386;28;20191;-78
2023/09/04 07:59:18;;;;;;;11.18;7.72;;;27.10;99.90;;;;;;5093106;28;20565;-77
2023/09/04 08:01:44;;;;;;;8.85;7.35;;;26.50;1.00;;;;;;5092749;28;20164;-76
2023/09/04 08:04:10;;;;;;;7.80;6.95;;;26.60;1.00;;;;;;5092568;28;20701;-77
2023/09/04 08:06:36;;;;;;;7.78;7.07;;;26.90;99.90;;;;;;5093647;28;20251;-78
2023/09/04 08:09:01;;;;;;;6.68;6.13;;;27.70;1.00;;;;;;5098888;28;20231;-77
2023/09/04 08:11:27;;;;;;;6.20;5.70;;;27.70;1.00;;;;;;5094050;28;20168;-77
2023/09/04 08:13:52;;;;;;;7.15;5.82;;;28.30;37.70;;;;;;5093157;28;20179;-76
2023/09/04 08:16:18;;;;;;;5.85;5.45;;;29.10;1.00;;;;;;5092732;28;20644;-78
2023/09/04 08:18:44;;;;;;;6.53;6.13;;;29.60;1.00;;;;;;5092743;28;20218;-77
2023/09/04 08:21:09;;;;;;;6.00;5.60;;;30.20;1.00;;;;;;5093122;28;20219;-78
2023/09/04 08:23:35;;;;;;;6.03;5.57;;;30.00;99.90;;;;;;5093305;28;20187;-78
2023/09/04 08:26:02;;;;;;;5.93;5.32;;;29.80;1.00;;;;;;5098558;28;20175;-78
2023/09/04 08:28:28;;;;;;;6.63;5.95;;;30.10;1.00;;;;;;5100004;28;20168;-78
2023/09/04 08:30:54;;;;;;;5.90;5.30;;;29.70;1.00;;;;;;5104858;28;20549;-78
2023/09/04 08:33:20;;;;;;;5.55;5.15;;;30.20;1.00;;;;;;5104619;28;20526;-78
2023/09/04 08:35:45;;;;;;;7.10;5.68;;;29.60;99.90;;;;;;5099071;28;20188;-77
2023/09/04 08:38:11;;;;;;;5.22;4.82;;;28.10;99.90;;;;;;5096943;28;20553;-77
2023/09/04 08:40:40;;;;;;;7.43;4.70;;;27.50;90.40;;;;;;5096571;28;20164;-77
2023/09/04 08:43:08;;;;;;;5.20;4.80;;;26.90;67.90;;;;;;5095491;28;20301;-77
2023/09/04 08:45:36;;;;;;;4.90;4.53;;;27.60;1.00;;;;;;5095732;28;20164;-76
2023/09/04 08:48:03;;;;;;;5.22;4.75;;;27.70;99.90;;;;;;5095045;28;20249;-77
2023/09/04 08:50:29;;;;;;;5.00;4.60;;;28.70;99.90;;;;;;5096050;28;20172;-77
2023/09/04 08:52:55;;;;;;;4.97;4.35;;;29.00;99.90;;;;;;5096311;28;20187;-76
2023/09/04 08:55:21;;;;;;;5.18;4.78;;;28.90;99.90;;;;;;5095704;28;20168;-77
2023/09/04 08:57:47;;;;;;;6.13;4.65;;;29.70;99.90;;;;;;5095825;28;20198;-77
2023/09/04 09:00:14;;;;;;;5.38;4.97;;;30.10;99.90;;;;;;5096544;28;20631;-78
2023/09/04 09:02:42;;;;;;;6.97;4.20;;;29.90;1.00;;;;;;5095505;28;20171;-76
2023/09/04 09:05:12;;;;;;;4.97;4.18;;;30.20;1.00;;;;;;5097562;28;20171;-77
2023/09/04 09:07:40;;;;;;;4.93;4.53;;;30.30;1.00;;;;;;5095233;28;20168;-79
2023/09/04 09:10:09;;;;;;;5.10;4.30;;;30.70;1.00;;;;;;5095994;28;20171;-79
2023/09/04 09:12:35;;;;;;;4.80;4.50;;;29.60;38.30;;;;;;5095541;28;20172;-78
2023/09/04 09:15:01;;;;;;;4.68;4.22;;;27.90;99.90;;;;;;5093655;28;20202;-79
2023/09/04 09:17:27;;;;;;;4.57;4.15;;;28.40;1.00;;;;;;5097015;28;20607;-79
2023/09/04 09:19:53;;;;;;;5.65;5.20;;;28.60;1.00;;;;;;5098142;28;20243;-80
2023/09/04 09:22:20;;;;;;;4.85;4.45;;;28.90;1.00;;;;;;5096288;28;20269;-79
2023/09/04 09:24:59;;;;;;;8.10;6.32;;;29.60;39.80;;;;;;5098270;28;20179;-79
2023/09/04 09:27:29;;;;;;;5.22;4.70;;;28.90;99.90;;;;;;5097686;28;20170;-79
2023/09/04 09:29:57;;;;;;;5.13;4.82;;;29.30;1.00;;;;;;5101249;28;20534;-78
2023/09/04 09:32:26;;;;;;;4.55;4.20;;;28.40;99.90;;;;;;5100871;28;20196;-78
2023/09/04 09:34:56;;;;;;;4.85;4.05;;;28.90;99.90;;;;;;5099257;28;20192;-80
2023/09/04 09:37:26;;;;;;;4.25;4.00;;;29.20;1.00;;;;;;5096332;28;20164;-79
2023/09/04 09:39:51;;;;;;;4.00;3.80;;;29.90;1.00;;;;;;5098045;28;20168;-79
2023/09/04 09:42:20;;;;;;;4.95;3.83;;;29.90;1.00;;;;;;5097666;28;20182;-79
2023/09/04 09:44:46;;;;;;;6.05;5.45;;;30.20;99.90;;;;;;5099059;28;20179;-79
2023/09/04 09:47:13;;;;;;;4.20;3.90;;;30.90;99.90;;;;;;5100686;28;20183;-79
2023/09/04 09:49:40;;;;;;;4.03;3.80;;;31.10;1.00;;;;;;5101522;28;20168;-79
2023/09/04 09:52:10;;;;;;;5.93;4.80;;;30.90;1.00;;;;;;5111033;28;20167;-79
2023/09/04 09:54:40;;;;;;;4.25;3.92;;;30.00;1.00;;;;;;5101658;28;20156;-80
2023/09/04 09:57:10;;;;;;;3.80;3.60;;;28.80;1.00;;;;;;5104838;28;20164;-80
2023/09/04 09:59:38;;;;;;;4.38;3.97;;;29.30;1.00;;;;;;5105014;28;20207;-79
2023/09/04 10:02:05;;;;;;;4.05;3.75;;;30.40;99.90;;;;;;5106202;28;20164;-79
2023/09/04 10:04:34;;;;;;;6.05;4.60;;;31.40;15.90;;;;;;5106609;28;20168;-78
2023/09/04 10:07:03;;;;;;;4.28;3.97;;;31.90;99.90;;;;;;5102942;28;20636;-79
2023/09/04 10:09:36;;;;;;;4.60;4.30;;;31.80;99.90;;;;;;5102545;28;20229;-79
2023/09/04 10:12:13;;;;;;;4.32;3.97;;;31.90;99.90;;;;;;5100527;28;20164;-77
2023/09/04 10:14:41;;;;;;;4.78;4.30;;;31.80;99.90;;;;;;5099097;28;20606;-78
2023/09/04 10:17:16;;;;;;;4.20;3.90;;;31.50;1.00;;;;;;5104582;28;20169;-79
2023/09/04 10:19:43;;;;;;;4.60;4.13;;;31.60;1.00;;;;;;5101047;28;20279;-78
2023/09/04 10:22:20;;;;;;;4.90;4.45;;;31.30;99.90;;;;;;5096996;28;20236;-78
2023/09/04 10:24:53;;;;;;;3.95;3.75;;;30.40;1.00;;;;;;5103280;28;20191;-80
2023/09/04 10:27:21;;;;;;;4.40;4.00;;;30.30;1.00;;;;;;5104774;28;20175;-78
2023/09/04 10:30:09;;;;;;;4.63;3.65;;;30.80;1.00;;;;;;5103667;28;20168;-81
2023/09/04 10:32:35;;;;;;;3.70;3.38;;;30.50;1.00;;;;;;5106159;28;20330;-79
2023/09/04 10:35:01;;;;;;;4.35;3.95;;;30.80;1.00;;;;;;5104099;28;20666;-80
2023/09/04 10:37:29;;;;;;;4.60;4.20;;;31.00;99.90;;;;;;5102466;28;20227;-79
2023/09/04 10:39:55;;;;;;;4.47;3.72;;;30.40;99.90;;;;;;5103086;28;20180;-79
2023/09/04 10:42:23;;;;;;;3.42;3.20;;;30.40;99.90;;;;;;5104782;28;20225;-79
2023/09/04 10:44:51;;;;;;;4.75;3.70;;;30.60;1.00;;;;;;5106774;28;20178;-79
2023/09/04 10:47:17;;;;;;;4.15;3.80;;;31.40;1.00;;;;;;5095868;28;20166;-77
2023/09/04 10:49:44;;;;;;;4.10;3.90;;;30.80;99.90;;;;;;5093629;28;20259;-77
2023/09/04 10:52:11;;;;;;;4.03;3.72;;;29.40;99.90;;;;;;5093186;28;20179;-78
2023/09/04 10:54:37;;;;;;;4.07;3.58;;;28.70;99.90;;;;;;5090921;28;20228;-77
2023/09/04 10:57:06;;;;;;;3.85;3.65;;;29.40;1.00;;;;;;5093345;28;20633;-78
2023/09/04 10:59:54;;;;;;;3.53;3.33;;;29.40;76.90;;;;;;5092581;28;20214;-76
2023/09/04 11:02:34;;;;;;;3.78;3.47;;;29.50;1.00;;;;;;5092952;28;20225;-76
2023/09/04 11:05:06;;;;;;;3.47;3.28;;;28.80;1.00;;;;;;5091955;28;20669;-76
2023/09/04 11:07:35;;;;;;;4.10;3.80;;;28.70;1.00;;;;;;5092387;28;20164;-77
2023/09/04 11:10:07;;;;;;;4.38;3.97;;;29.00;99.90;;;;;;5091338;28;20254;-78
2023/09/04 11:12:37;;;;;;;4.05;3.75;;;29.10;1.00;;;;;;5091911;28;20200;-78
2023/09/04 11:15:13;;;;;;;4.70;4.40;;;29.30;1.00;;;;;;5092697;28;20191;-77
2023/09/04 11:17:40;;;;;;;6.60;4.90;;;29.40;1.00;;;;;;5092466;28;20179;-78
2023/09/04 11:20:09;;;;;;;5.65;5.20;;;29.90;75.20;;;;;;5092799;28;20222;-79
2023/09/04 11:22:34;;;;;;;5.13;4.47;;;30.80;1.00;;;;;;5092127;28;20159;-79
2023/09/04 11:25:00;;;;;;;5.60;5.10;;;31.10;70.40;;;;;;5092159;28;20191;-78
2023/09/04 11:27:27;;;;;;;4.93;4.50;;;30.10;1.00;;;;;;5091830;28;20225;-75
2023/09/04 11:29:54;;;;;;;4.82;4.38;;;29.60;1.00;;;;;;5092288;28;20168;-77
2023/09/04 11:32:20;;;;;;;5.13;4.55;;;29.90;99.90;;;;;;5092580;28;20661;-80
2023/09/04 11:34:47;;;;;;;5.07;4.72;;;29.30;99.90;;;;;;5092533;28;20202;-77
2023/09/04 11:37:13;;;;;;;5.68;5.10;;;28.90;1.00;;;;;;5092521;28;20203;-79
2023/09/04 11:39:52;;;;;;;7.85;4.28;;;29.10;1.00;;;;;;5092643;28;20234;-78
2023/09/04 11:42:25;;;;;;;5.43;4.93;;;29.30;90.50;;;;;;5090841;28;20167;-78
2023/09/04 11:44:51;;;;;;;4.50;4.10;;;29.50;1.00;;;;;;5092445;28;20168;-77
2023/09/04 11:47:21;;;;;;;4.40;4.10;;;30.20;99.90;;;;;;5092298;28;20172;-77
2023/09/04 11:49:47;;;;;;;5.18;4.40;;;30.30;1.00;;;;;;5092921;28;20179;-78
2023/09/04 11:52:14;;;;;;;4.72;4.32;;;29.90;1.00;;;;;;5092349;28;20160;-76
2023/09/04 11:54:40;;;;;;;7.20;5.15;;;29.60;1.00;;;;;;5092971;28;20175;-77
2023/09/04 11:57:07;;;;;;;4.43;4.13;;;29.50;1.00;;;;;;5091870;28;20666;-77
2023/09/04 11:59:37;;;;;;;4.25;3.90;;;29.10;1.00;;;;;;5091942;28;20639;-76
2023/09/04 12:02:04;;;;;;;3.97;3.67;;;28.30;99.90;;;;;;5091898;28;20172;-75
2023/09/04 12:04:33;;;;;;;4.07;3.72;;;28.30;99.90;;;;;;5092630;28;20172;-76
2023/09/04 12:07:03;;;;;;;3.55;3.35;;;28.20;1.00;;;;;;5095096;28;20198;-76
2023/09/04 12:09:30;;;;;;;3.90;3.50;;;28.00;1.00;;;;;;5095855;28;20229;-76
2023/09/04 12:11:56;;;;;;;3.42;3.22;;;28.10;1.00;;;;;;5095575;28;20567;-77
2023/09/04 12:14:22;;;;;;;3.88;3.30;;;27.60;99.90;;;;;;5096022;28;20165;-77
2023/09/04 12:16:48;;;;;;;3.60;3.30;;;27.50;1.00;;;;;;5094354;28;20194;-77
2023/09/04 12:19:15;;;;;;;4.80;3.78;;;27.60;1.00;;;;;;5095814;28;20224;-78
2023/09/04 12:21:41;;;;;;;3.20;3.00;;;26.90;99.90;;;;;;5096182;28;20172;-77
2023/09/04 12:24:17;;;;;;;3.88;3.58;;;26.60;99.90;;;;;;5095812;28;20229;-79
2023/09/04 12:26:43;;;;;;;3.17;2.97;;;26.40;1.00;;;;;;5095528;28;20195;-78
2023/09/04 12:29:10;;;;;;;3.67;3.38;;;26.40;99.90;;;;;;5096001;28;20208;-78
2023/09/04 12:31:36;;;;;;;5.13;3.50;;;26.40;99.90;;;;;;5095333;28;20182;-79
2023/09/04 12:34:03;;;;;;;4.22;3.08;;;26.40;1.00;;;;;;5095596;28;20207;-78
2023/09/04 12:36:31;;;;;;;4.45;3.35;;;26.10;99.90;;;;;;5095544;28;20171;-77